sensor_id;sensor_type;location;lat;lon;timestamp;P1;durP1;ratioP1;P2;durP2;ratioP2
9304;SDS011;4690;52.422;13.486;2023-12-28T00:09:28;7.17;;;4.73;;
9304;SDS011;4690;52.422;13.486;2023-12-28T00:11:54;7.97;;;5.70;;
9304;SDS011;4690;52.422;13.486;2023-12-28T00:14:20;12.50;;;6.07;;
9304;SDS011;4690;52.422;13.486;2023-12-28T00:16:46;9.33;;;5.80;;
9304;SDS011;4690;52.422;13.486;2023-12-28T00:19:12;7.10;;;5.30;;
9304;SDS011;4690;52.422;13.486;2023-12-28T00:21:37;7.70;;;5.33;;
9304;SDS011;4690;52.422;13.486;2023-12-28T00:24:03;7.07;;;5.20;;
9304;SDS011;4690;52.422;13.486;2023-12-28T00:26:29;8.60;;;5.27;;
9304;SDS011;4690;52.422;13.486;2023-12-28T00:28:55;8.40;;;4.90;;
9304;SDS011;4690;52.422;13.486;2023-12-28T00:31:20;6.97;;;4.80;;
9304;SDS011;4690;52.422;13.486;2023-12-28T00:33:46;8.50;;;4.97;;
9304;SDS011;4690;52.422;13.486;2023-12-28T00:36:13;6.33;;;4.90;;
9304;SDS011;4690;52.422;13.486;2023-12-28T00:38:39;7.37;;;4.60;;
9304;SDS011;4690;52.422;13.486;2023-12-28T00:41:05;7.60;;;4.70;;
9304;SDS011;4690;52.422;13.486;2023-12-28T00:43:31;7.43;;;4.40;;
9304;SDS011;4690;52.422;13.486;2023-12-28T00:45:56;7.40;;;4.60;;
9304;SDS011;4690;52.422;13.486;2023-12-28T00:48:22;6.67;;;4.83;;
9304;SDS011;4690;52.422;13.486;2023-12-28T00:50:48;5.23;;;4.23;;
9304;SDS011;4690;52.422;13.486;2023-12-28T00:53:13;8.23;;;4.67;;
9304;SDS011;4690;52.422;13.486;2023-12-28T00:55:40;8.87;;;4.83;;
9304;SDS011;4690;52.422;13.486;2023-12-28T00:58:05;6.97;;;4.30;;
9304;SDS011;4690;52.422;13.486;2023-12-28T01:00:31;7.73;;;4.90;;
9304;SDS011;4690;52.422;13.486;2023-12-28T01:02:57;6.90;;;4.73;;
9304;SDS011;4690;52.422;13.486;2023-12-28T01:05:22;7.10;;;4.50;;
9304;SDS011;4690;52.422;13.486;2023-12-28T01:07:51;6.53;;;4.50;;
9304;SDS011;4690;52.422;13.486;2023-12-28T01:10:17;7.77;;;4.60;;
9304;SDS011;4690;52.422;13.486;2023-12-28T01:12:42;6.03;;;4.03;;
9304;SDS011;4690;52.422;13.486;2023-12-28T01:15:08;4.97;;;4.23;;
9304;SDS011;4690;52.422;13.486;2023-12-28T01:17:34;6.27;;;4.43;;
9304;SDS011;4690;52.422;13.486;2023-12-28T01:20:00;5.97;;;3.87;;
9304;SDS011;4690;52.422;13.486;2023-12-28T01:22:26;5.17;;;3.67;;
9304;SDS011;4690;52.422;13.486;2023-12-28T01:24:51;4.20;;;3.80;;
9304;SDS011;4690;52.422;13.486;2023-12-28T01:27:17;5.67;;;3.97;;
9304;SDS011;4690;52.422;13.486;2023-12-28T01:29:43;8.03;;;4.03;;
9304;SDS011;4690;52.422;13.486;2023-12-28T01:32:09;5.00;;;4.47;;
9304;SDS011;4690;52.422;13.486;2023-12-28T01:34:35;4.93;;;4.00;;
9304;SDS011;4690;52.422;13.486;2023-12-28T01:37:00;5.23;;;4.37;;
9304;SDS011;4690;52.422;13.486;2023-12-28T01:39:26;5.23;;;4.17;;
9304;SDS011;4690;52.422;13.486;2023-12-28T01:41:52;5.20;;;4.23;;
9304;SDS011;4690;52.422;13.486;2023-12-28T01:44:19;4.90;;;4.10;;
9304;SDS011;4690;52.422;13.486;2023-12-28T01:46:44;5.07;;;4.30;;
9304;SDS011;4690;52.422;13.486;2023-12-28T01:49:11;6.27;;;4.33;;
9304;SDS011;4690;52.422;13.486;2023-12-28T01:51:37;6.03;;;4.50;;
9304;SDS011;4690;52.422;13.486;2023-12-28T01:54:04;5.10;;;4.40;;
9304;SDS011;4690;52.422;13.486;2023-12-28T01:56:30;4.50;;;4.10;;
9304;SDS011;4690;52.422;13.486;2023-12-28T01:58:56;4.87;;;4.30;;
9304;SDS011;4690;52.422;13.486;2023-12-28T02:01:22;6.87;;;4.23;;
9304;SDS011;4690;52.422;13.486;2023-12-28T02:03:50;5.03;;;4.30;;
9304;SDS011;4690;52.422;13.486;2023-12-28T02:06:16;6.37;;;3.90;;
9304;SDS011;4690;52.422;13.486;2023-12-28T02:08:44;5.67;;;4.13;;
9304;SDS011;4690;52.422;13.486;2023-12-28T02:11:09;5.40;;;3.67;;
9304;SDS011;4690;52.422;13.486;2023-12-28T02:13:36;4.67;;;3.53;;
9304;SDS011;4690;52.422;13.486;2023-12-28T02:16:03;4.97;;;3.60;;
9304;SDS011;4690;52.422;13.486;2023-12-28T02:18:39;3.50;;;3.00;;
9304;SDS011;4690;52.422;13.486;2023-12-28T02:21:12;5.27;;;3.70;;
9304;SDS011;4690;52.422;13.486;2023-12-28T02:23:45;3.63;;;2.80;;
9304;SDS011;4690;52.422;13.486;2023-12-28T02:26:13;3.23;;;2.70;;
9304;SDS011;4690;52.422;13.486;2023-12-28T02:28:40;4.10;;;2.87;;
9304;SDS011;4690;52.422;13.486;2023-12-28T02:31:06;7.00;;;2.87;;
9304;SDS011;4690;52.422;13.486;2023-12-28T02:33:54;2.70;;;2.50;;
9304;SDS011;4690;52.422;13.486;2023-12-28T02:36:33;3.57;;;2.80;;
9304;SDS011;4690;52.422;13.486;2023-12-28T02:39:03;3.30;;;2.60;;
9304;SDS011;4690;52.422;13.486;2023-12-28T02:41:32;2.37;;;2.17;;
9304;SDS011;4690;52.422;13.486;2023-12-28T02:43:59;2.50;;;2.30;;
9304;SDS011;4690;52.422;13.486;2023-12-28T02:46:25;3.03;;;2.70;;
9304;SDS011;4690;52.422;13.486;2023-12-28T02:48:50;3.70;;;2.37;;
9304;SDS011;4690;52.422;13.486;2023-12-28T02:51:17;2.30;;;2.10;;
9304;SDS011;4690;52.422;13.486;2023-12-28T02:53:43;3.23;;;2.40;;
9304;SDS011;4690;52.422;13.486;2023-12-28T02:56:09;2.23;;;2.03;;
9304;SDS011;4690;52.422;13.486;2023-12-28T02:58:34;3.63;;;2.43;;
9304;SDS011;4690;52.422;13.486;2023-12-28T03:01:00;2.90;;;2.10;;
9304;SDS011;4690;52.422;13.486;2023-12-28T03:03:26;3.13;;;2.10;;
9304;SDS011;4690;52.422;13.486;2023-12-28T03:05:51;2.70;;;2.30;;
9304;SDS011;4690;52.422;13.486;2023-12-28T03:08:17;4.00;;;2.60;;
9304;SDS011;4690;52.422;13.486;2023-12-28T03:10:43;2.43;;;2.23;;
9304;SDS011;4690;52.422;13.486;2023-12-28T03:13:09;2.47;;;2.27;;
9304;SDS011;4690;52.422;13.486;2023-12-28T03:15:35;2.33;;;2.13;;
9304;SDS011;4690;52.422;13.486;2023-12-28T03:18:00;2.80;;;2.10;;
9304;SDS011;4690;52.422;13.486;2023-12-28T03:20:26;5.33;;;2.37;;
9304;SDS011;4690;52.422;13.486;2023-12-28T03:22:52;2.80;;;2.50;;
9304;SDS011;4690;52.422;13.486;2023-12-28T03:25:17;2.60;;;2.40;;
9304;SDS011;4690;52.422;13.486;2023-12-28T03:27:43;3.00;;;2.20;;
9304;SDS011;4690;52.422;13.486;2023-12-28T03:30:09;2.27;;;2.07;;
9304;SDS011;4690;52.422;13.486;2023-12-28T03:32:36;2.93;;;2.30;;
9304;SDS011;4690;52.422;13.486;2023-12-28T03:35:01;4.07;;;2.40;;
9304;SDS011;4690;52.422;13.486;2023-12-28T03:37:28;2.50;;;2.20;;
9304;SDS011;4690;52.422;13.486;2023-12-28T03:39:54;2.13;;;2.00;;
9304;SDS011;4690;52.422;13.486;2023-12-28T03:42:20;4.70;;;2.30;;
9304;SDS011;4690;52.422;13.486;2023-12-28T03:44:47;2.20;;;1.83;;
9304;SDS011;4690;52.422;13.486;2023-12-28T03:47:12;2.37;;;2.10;;
9304;SDS011;4690;52.422;13.486;2023-12-28T03:49:38;2.33;;;2.10;;
9304;SDS011;4690;52.422;13.486;2023-12-28T03:52:04;2.60;;;2.10;;
9304;SDS011;4690;52.422;13.486;2023-12-28T03:54:30;2.50;;;2.30;;
9304;SDS011;4690;52.422;13.486;2023-12-28T03:56:56;5.77;;;2.23;;
9304;SDS011;4690;52.422;13.486;2023-12-28T03:59:22;2.63;;;2.10;;
9304;SDS011;4690;52.422;13.486;2023-12-28T04:01:48;3.13;;;2.43;;
9304;SDS011;4690;52.422;13.486;2023-12-28T04:04:14;2.70;;;2.30;;
9304;SDS011;4690;52.422;13.486;2023-12-28T04:06:39;2.60;;;2.20;;
9304;SDS011;4690;52.422;13.486;2023-12-28T04:09:07;3.00;;;2.33;;
9304;SDS011;4690;52.422;13.486;2023-12-28T04:11:33;2.50;;;1.90;;
9304;SDS011;4690;52.422;13.486;2023-12-28T04:13:58;1.87;;;1.77;;
9304;SDS011;4690;52.422;13.486;2023-12-28T04:16:24;3.27;;;2.13;;
9304;SDS011;4690;52.422;13.486;2023-12-28T04:18:50;2.67;;;2.30;;
9304;SDS011;4690;52.422;13.486;2023-12-28T04:21:15;2.40;;;2.20;;
9304;SDS011;4690;52.422;13.486;2023-12-28T04:23:41;2.37;;;2.10;;
9304;SDS011;4690;52.422;13.486;2023-12-28T04:26:08;2.27;;;2.07;;
9304;SDS011;4690;52.422;13.486;2023-12-28T04:28:33;2.47;;;2.17;;
9304;SDS011;4690;52.422;13.486;2023-12-28T04:31:04;3.40;;;2.30;;
9304;SDS011;4690;52.422;13.486;2023-12-28T04:33:31;2.10;;;1.90;;
9304;SDS011;4690;52.422;13.486;2023-12-28T04:36:01;2.47;;;2.20;;
9304;SDS011;4690;52.422;13.486;2023-12-28T04:38:31;2.27;;;1.90;;
9304;SDS011;4690;52.422;13.486;2023-12-28T04:41:01;2.90;;;2.20;;
9304;SDS011;4690;52.422;13.486;2023-12-28T04:43:27;2.30;;;2.10;;
9304;SDS011;4690;52.422;13.486;2023-12-28T04:45:53;2.20;;;2.00;;
9304;SDS011;4690;52.422;13.486;2023-12-28T04:48:19;2.40;;;2.03;;
9304;SDS011;4690;52.422;13.486;2023-12-28T04:50:46;2.10;;;1.90;;
9304;SDS011;4690;52.422;13.486;2023-12-28T04:53:13;3.73;;;1.93;;
9304;SDS011;4690;52.422;13.486;2023-12-28T04:55:39;2.40;;;1.90;;
9304;SDS011;4690;52.422;13.486;2023-12-28T04:58:04;2.57;;;2.00;;
9304;SDS011;4690;52.422;13.486;2023-12-28T05:00:30;2.10;;;1.90;;
9304;SDS011;4690;52.422;13.486;2023-12-28T05:02:56;2.73;;;2.20;;
9304;SDS011;4690;52.422;13.486;2023-12-28T05:05:22;2.40;;;2.20;;
9304;SDS011;4690;52.422;13.486;2023-12-28T05:07:47;2.10;;;1.90;;
9304;SDS011;4690;52.422;13.486;2023-12-28T05:10:13;2.77;;;2.23;;
9304;SDS011;4690;52.422;13.486;2023-12-28T05:12:39;2.10;;;1.90;;
9304;SDS011;4690;52.422;13.486;2023-12-28T05:15:05;2.20;;;2.00;;
9304;SDS011;4690;52.422;13.486;2023-12-28T05:17:31;2.63;;;2.20;;
9304;SDS011;4690;52.422;13.486;2023-12-28T05:19:57;2.90;;;2.27;;
9304;SDS011;4690;52.422;13.486;2023-12-28T05:22:23;2.63;;;2.23;;
9304;SDS011;4690;52.422;13.486;2023-12-28T05:24:48;2.27;;;1.80;;
9304;SDS011;4690;52.422;13.486;2023-12-28T05:27:14;2.20;;;2.00;;
9304;SDS011;4690;52.422;13.486;2023-12-28T05:29:40;3.07;;;2.10;;
9304;SDS011;4690;52.422;13.486;2023-12-28T05:32:06;2.10;;;1.90;;
9304;SDS011;4690;52.422;13.486;2023-12-28T05:34:31;2.13;;;1.93;;
9304;SDS011;4690;52.422;13.486;2023-12-28T05:36:57;2.10;;;1.90;;
9304;SDS011;4690;52.422;13.486;2023-12-28T05:39:23;2.23;;;1.93;;
9304;SDS011;4690;52.422;13.486;2023-12-28T05:41:48;3.93;;;1.97;;
9304;SDS011;4690;52.422;13.486;2023-12-28T05:44:15;2.10;;;1.90;;
9304;SDS011;4690;52.422;13.486;2023-12-28T05:46:42;3.07;;;2.07;;
9304;SDS011;4690;52.422;13.486;2023-12-28T05:49:08;2.90;;;2.10;;
9304;SDS011;4690;52.422;13.486;2023-12-28T05:51:37;2.23;;;1.90;;
9304;SDS011;4690;52.422;13.486;2023-12-28T05:54:07;3.90;;;2.30;;
9304;SDS011;4690;52.422;13.486;2023-12-28T05:56:33;2.97;;;2.20;;
9304;SDS011;4690;52.422;13.486;2023-12-28T05:59:00;2.23;;;2.00;;
9304;SDS011;4690;52.422;13.486;2023-12-28T06:01:26;2.33;;;2.13;;
9304;SDS011;4690;52.422;13.486;2023-12-28T06:03:52;2.70;;;2.30;;
9304;SDS011;4690;52.422;13.486;2023-12-28T06:06:19;3.43;;;2.10;;
9304;SDS011;4690;52.422;13.486;2023-12-28T06:08:45;2.87;;;2.03;;
9304;SDS011;4690;52.422;13.486;2023-12-28T06:11:11;2.07;;;1.93;;
9304;SDS011;4690;52.422;13.486;2023-12-28T06:13:37;3.27;;;1.80;;
9304;SDS011;4690;52.422;13.486;2023-12-28T06:16:03;3.07;;;2.43;;
9304;SDS011;4690;52.422;13.486;2023-12-28T06:18:29;2.70;;;2.03;;
9304;SDS011;4690;52.422;13.486;2023-12-28T06:20:55;2.40;;;2.20;;
9304;SDS011;4690;52.422;13.486;2023-12-28T06:23:21;2.37;;;2.10;;
9304;SDS011;4690;52.422;13.486;2023-12-28T06:25:46;4.37;;;2.47;;
9304;SDS011;4690;52.422;13.486;2023-12-28T06:28:12;2.30;;;2.10;;
9304;SDS011;4690;52.422;13.486;2023-12-28T06:30:38;2.83;;;2.10;;
9304;SDS011;4690;52.422;13.486;2023-12-28T06:33:04;3.73;;;2.43;;
9304;SDS011;4690;52.422;13.486;2023-12-28T06:35:31;2.10;;;2.00;;
9304;SDS011;4690;52.422;13.486;2023-12-28T06:37:56;2.73;;;2.33;;
9304;SDS011;4690;52.422;13.486;2023-12-28T06:40:22;3.17;;;2.30;;
9304;SDS011;4690;52.422;13.486;2023-12-28T06:42:48;3.27;;;2.10;;
9304;SDS011;4690;52.422;13.486;2023-12-28T06:45:13;2.47;;;2.20;;
9304;SDS011;4690;52.422;13.486;2023-12-28T06:47:39;2.83;;;2.13;;
9304;SDS011;4690;52.422;13.486;2023-12-28T06:50:05;2.50;;;2.10;;
9304;SDS011;4690;52.422;13.486;2023-12-28T06:52:32;2.67;;;2.30;;
9304;SDS011;4690;52.422;13.486;2023-12-28T06:54:58;2.30;;;2.10;;
9304;SDS011;4690;52.422;13.486;2023-12-28T06:57:24;2.37;;;2.13;;
9304;SDS011;4690;52.422;13.486;2023-12-28T06:59:50;3.27;;;2.30;;
9304;SDS011;4690;52.422;13.486;2023-12-28T07:02:15;3.50;;;2.53;;
9304;SDS011;4690;52.422;13.486;2023-12-28T07:04:41;2.73;;;2.27;;
9304;SDS011;4690;52.422;13.486;2023-12-28T07:07:07;2.80;;;2.23;;
9304;SDS011;4690;52.422;13.486;2023-12-28T07:09:32;2.33;;;2.00;;
9304;SDS011;4690;52.422;13.486;2023-12-28T07:11:58;2.40;;;2.20;;
9304;SDS011;4690;52.422;13.486;2023-12-28T07:14:24;2.90;;;2.40;;
9304;SDS011;4690;52.422;13.486;2023-12-28T07:16:50;2.33;;;2.00;;
9304;SDS011;4690;52.422;13.486;2023-12-28T07:19:16;3.07;;;2.17;;
9304;SDS011;4690;52.422;13.486;2023-12-28T07:21:41;2.43;;;2.23;;
9304;SDS011;4690;52.422;13.486;2023-12-28T07:24:07;2.83;;;2.23;;
9304;SDS011;4690;52.422;13.486;2023-12-28T07:26:33;2.50;;;2.20;;
9304;SDS011;4690;52.422;13.486;2023-12-28T07:28:58;2.63;;;2.10;;
9304;SDS011;4690;52.422;13.486;2023-12-28T07:31:27;3.03;;;2.10;;
9304;SDS011;4690;52.422;13.486;2023-12-28T07:33:53;4.87;;;2.20;;
9304;SDS011;4690;52.422;13.486;2023-12-28T07:36:20;2.53;;;2.33;;
9304;SDS011;4690;52.422;13.486;2023-12-28T07:38:46;2.43;;;2.23;;
9304;SDS011;4690;52.422;13.486;2023-12-28T07:41:12;2.17;;;1.93;;
9304;SDS011;4690;52.422;13.486;2023-12-28T07:43:37;3.00;;;2.10;;
9304;SDS011;4690;52.422;13.486;2023-12-28T07:46:03;3.43;;;2.10;;
9304;SDS011;4690;52.422;13.486;2023-12-28T07:48:30;4.53;;;2.30;;
9304;SDS011;4690;52.422;13.486;2023-12-28T07:50:58;2.27;;;2.07;;
9304;SDS011;4690;52.422;13.486;2023-12-28T07:53:29;3.53;;;2.60;;
9304;SDS011;4690;52.422;13.486;2023-12-28T07:55:55;4.00;;;2.43;;
9304;SDS011;4690;52.422;13.486;2023-12-28T07:58:21;2.77;;;2.47;;
9304;SDS011;4690;52.422;13.486;2023-12-28T08:00:47;2.47;;;2.20;;
9304;SDS011;4690;52.422;13.486;2023-12-28T08:03:14;2.40;;;2.20;;
9304;SDS011;4690;52.422;13.486;2023-12-28T08:05:43;4.07;;;2.20;;
9304;SDS011;4690;52.422;13.486;2023-12-28T08:08:08;2.90;;;2.30;;
9304;SDS011;4690;52.422;13.486;2023-12-28T08:10:34;4.93;;;2.20;;
9304;SDS011;4690;52.422;13.486;2023-12-28T08:13:00;2.60;;;2.40;;
9304;SDS011;4690;52.422;13.486;2023-12-28T08:15:26;2.40;;;2.20;;
9304;SDS011;4690;52.422;13.486;2023-12-28T08:17:51;4.03;;;2.83;;
9304;SDS011;4690;52.422;13.486;2023-12-28T08:20:17;3.13;;;2.27;;
9304;SDS011;4690;52.422;13.486;2023-12-28T08:22:43;2.77;;;2.40;;
9304;SDS011;4690;52.422;13.486;2023-12-28T08:25:08;3.70;;;2.37;;
9304;SDS011;4690;52.422;13.486;2023-12-28T08:27:35;3.37;;;2.70;;
9304;SDS011;4690;52.422;13.486;2023-12-28T08:30:01;2.33;;;2.13;;
9304;SDS011;4690;52.422;13.486;2023-12-28T08:32:27;2.60;;;2.40;;
9304;SDS011;4690;52.422;13.486;2023-12-28T08:34:53;2.30;;;2.10;;
9304;SDS011;4690;52.422;13.486;2023-12-28T08:37:18;2.93;;;2.50;;
9304;SDS011;4690;52.422;13.486;2023-12-28T08:39:44;2.90;;;2.30;;
9304;SDS011;4690;52.422;13.486;2023-12-28T08:42:10;3.73;;;2.37;;
9304;SDS011;4690;52.422;13.486;2023-12-28T08:44:36;4.43;;;2.43;;
9304;SDS011;4690;52.422;13.486;2023-12-28T08:47:01;4.20;;;2.90;;
9304;SDS011;4690;52.422;13.486;2023-12-28T08:49:27;3.30;;;2.60;;
9304;SDS011;4690;52.422;13.486;2023-12-28T08:51:54;2.70;;;2.50;;
9304;SDS011;4690;52.422;13.486;2023-12-28T08:54:20;3.33;;;2.60;;
9304;SDS011;4690;52.422;13.486;2023-12-28T08:56:46;2.97;;;2.60;;
9304;SDS011;4690;52.422;13.486;2023-12-28T08:59:13;4.03;;;2.63;;
9304;SDS011;4690;52.422;13.486;2023-12-28T09:01:39;3.13;;;2.83;;
9304;SDS011;4690;52.422;13.486;2023-12-28T09:04:04;3.07;;;2.77;;
9304;SDS011;4690;52.422;13.486;2023-12-28T09:06:30;3.27;;;2.80;;
9304;SDS011;4690;52.422;13.486;2023-12-28T09:08:56;4.23;;;2.60;;
9304;SDS011;4690;52.422;13.486;2023-12-28T09:11:22;2.63;;;2.43;;
9304;SDS011;4690;52.422;13.486;2023-12-28T09:13:48;4.50;;;2.77;;
9304;SDS011;4690;52.422;13.486;2023-12-28T09:16:14;3.60;;;2.60;;
9304;SDS011;4690;52.422;13.486;2023-12-28T09:18:41;3.00;;;2.60;;
9304;SDS011;4690;52.422;13.486;2023-12-28T09:21:08;4.47;;;2.80;;
9304;SDS011;4690;52.422;13.486;2023-12-28T09:23:35;4.60;;;2.80;;
9304;SDS011;4690;52.422;13.486;2023-12-28T09:26:01;4.13;;;2.80;;
9304;SDS011;4690;52.422;13.486;2023-12-28T09:28:29;3.17;;;2.83;;
9304;SDS011;4690;52.422;13.486;2023-12-28T09:31:02;3.70;;;2.57;;
9304;SDS011;4690;52.422;13.486;2023-12-28T09:33:29;3.40;;;3.10;;
9304;SDS011;4690;52.422;13.486;2023-12-28T09:35:55;3.13;;;2.50;;
9304;SDS011;4690;52.422;13.486;2023-12-28T09:38:21;3.87;;;2.80;;
9304;SDS011;4690;52.422;13.486;2023-12-28T09:40:47;3.40;;;2.80;;
9304;SDS011;4690;52.422;13.486;2023-12-28T09:43:22;4.00;;;2.90;;
9304;SDS011;4690;52.422;13.486;2023-12-28T09:46:05;4.47;;;2.80;;
9304;SDS011;4690;52.422;13.486;2023-12-28T09:48:33;3.23;;;2.80;;
9304;SDS011;4690;52.422;13.486;2023-12-28T09:51:01;3.20;;;2.67;;
9304;SDS011;4690;52.422;13.486;2023-12-28T09:53:27;3.30;;;3.00;;
9304;SDS011;4690;52.422;13.486;2023-12-28T09:55:54;3.70;;;3.03;;
9304;SDS011;4690;52.422;13.486;2023-12-28T09:58:21;3.13;;;2.83;;
9304;SDS011;4690;52.422;13.486;2023-12-28T10:00:47;3.60;;;3.30;;
9304;SDS011;4690;52.422;13.486;2023-12-28T10:03:15;3.93;;;3.10;;
9304;SDS011;4690;52.422;13.486;2023-12-28T10:05:43;5.23;;;4.03;;
9304;SDS011;4690;52.422;13.486;2023-12-28T10:08:13;4.13;;;3.20;;
9304;SDS011;4690;52.422;13.486;2023-12-28T10:10:40;3.87;;;3.23;;
9304;SDS011;4690;52.422;13.486;2023-12-28T10:13:08;3.80;;;3.33;;
9304;SDS011;4690;52.422;13.486;2023-12-28T10:15:37;3.10;;;2.80;;
9304;SDS011;4690;52.422;13.486;2023-12-28T10:18:06;4.60;;;3.10;;
9304;SDS011;4690;52.422;13.486;2023-12-28T10:20:32;3.43;;;3.00;;
9304;SDS011;4690;52.422;13.486;2023-12-28T10:22:58;5.03;;;3.20;;
9304;SDS011;4690;52.422;13.486;2023-12-28T10:25:24;4.53;;;3.10;;
9304;SDS011;4690;52.422;13.486;2023-12-28T10:27:51;3.20;;;2.90;;
9304;SDS011;4690;52.422;13.486;2023-12-28T10:30:19;5.03;;;3.57;;
9304;SDS011;4690;52.422;13.486;2023-12-28T10:32:46;4.60;;;3.50;;
9304;SDS011;4690;52.422;13.486;2023-12-28T10:35:12;4.73;;;3.43;;
9304;SDS011;4690;52.422;13.486;2023-12-28T10:37:39;3.20;;;2.80;;
9304;SDS011;4690;52.422;13.486;2023-12-28T10:40:07;3.77;;;3.13;;
9304;SDS011;4690;52.422;13.486;2023-12-28T10:45:19;3.90;;;3.47;;
9304;SDS011;4690;52.422;13.486;2023-12-28T10:50:26;3.30;;;3.00;;
9304;SDS011;4690;52.422;13.486;2023-12-28T10:52:56;3.53;;;3.10;;
9304;SDS011;4690;52.422;13.486;2023-12-28T10:56:00;3.50;;;3.00;;
9304;SDS011;4690;52.422;13.486;2023-12-28T10:58:37;4.53;;;2.90;;
9304;SDS011;4690;52.422;13.486;2023-12-28T11:01:05;4.20;;;3.30;;
9304;SDS011;4690;52.422;13.486;2023-12-28T11:03:37;3.17;;;2.87;;
9304;SDS011;4690;52.422;13.486;2023-12-28T11:06:06;3.30;;;3.00;;
9304;SDS011;4690;52.422;13.486;2023-12-28T11:08:33;3.77;;;3.03;;
9304;SDS011;4690;52.422;13.486;2023-12-28T11:11:03;3.80;;;3.17;;
9304;SDS011;4690;52.422;13.486;2023-12-28T11:13:32;3.67;;;3.00;;
9304;SDS011;4690;52.422;13.486;2023-12-28T11:16:00;3.40;;;3.10;;
9304;SDS011;4690;52.422;13.486;2023-12-28T11:18:26;4.27;;;2.90;;
9304;SDS011;4690;52.422;13.486;2023-12-28T11:20:54;3.23;;;2.87;;
9304;SDS011;4690;52.422;13.486;2023-12-28T11:23:20;2.93;;;2.67;;
9304;SDS011;4690;52.422;13.486;2023-12-28T11:25:46;3.97;;;2.83;;
9304;SDS011;4690;52.422;13.486;2023-12-28T11:28:12;4.07;;;2.70;;
9304;SDS011;4690;52.422;13.486;2023-12-28T11:30:41;3.83;;;3.10;;
9304;SDS011;4690;52.422;13.486;2023-12-28T11:33:08;3.03;;;2.70;;
9304;SDS011;4690;52.422;13.486;2023-12-28T11:35:36;4.47;;;3.00;;
9304;SDS011;4690;52.422;13.486;2023-12-28T11:38:04;4.67;;;3.10;;
9304;SDS011;4690;52.422;13.486;2023-12-28T11:40:44;3.57;;;2.77;;
9304;SDS011;4690;52.422;13.486;2023-12-28T11:43:15;3.00;;;2.60;;
9304;SDS011;4690;52.422;13.486;2023-12-28T11:45:55;3.27;;;2.97;;
9304;SDS011;4690;52.422;13.486;2023-12-28T11:48:27;3.47;;;2.80;;
9304;SDS011;4690;52.422;13.486;2023-12-28T11:50:57;3.40;;;2.70;;
9304;SDS011;4690;52.422;13.486;2023-12-28T11:53:25;3.70;;;2.73;;
9304;SDS011;4690;52.422;13.486;2023-12-28T11:55:51;4.20;;;2.97;;
9304;SDS011;4690;52.422;13.486;2023-12-28T11:58:26;4.13;;;2.60;;
9304;SDS011;4690;52.422;13.486;2023-12-28T12:00:52;4.27;;;2.83;;
9304;SDS011;4690;52.422;13.486;2023-12-28T12:03:18;3.07;;;2.70;;
9304;SDS011;4690;52.422;13.486;2023-12-28T12:05:44;6.07;;;3.10;;
9304;SDS011;4690;52.422;13.486;2023-12-28T12:08:10;3.87;;;2.83;;
9304;SDS011;4690;52.422;13.486;2023-12-28T12:10:39;3.00;;;2.70;;
9304;SDS011;4690;52.422;13.486;2023-12-28T12:13:06;3.00;;;2.70;;
9304;SDS011;4690;52.422;13.486;2023-12-28T12:15:33;3.00;;;2.70;;
9304;SDS011;4690;52.422;13.486;2023-12-28T12:17:59;3.50;;;3.07;;
9304;SDS011;4690;52.422;13.486;2023-12-28T12:20:27;3.10;;;2.80;;
9304;SDS011;4690;52.422;13.486;2023-12-28T12:22:57;3.23;;;2.67;;
9304;SDS011;4690;52.422;13.486;2023-12-28T12:25:24;2.73;;;2.53;;
9304;SDS011;4690;52.422;13.486;2023-12-28T12:27:50;3.00;;;2.50;;
9304;SDS011;4690;52.422;13.486;2023-12-28T12:30:16;2.57;;;2.37;;
9304;SDS011;4690;52.422;13.486;2023-12-28T12:32:42;3.03;;;2.33;;
9304;SDS011;4690;52.422;13.486;2023-12-28T12:35:11;3.77;;;2.60;;
9304;SDS011;4690;52.422;13.486;2023-12-28T12:37:39;4.40;;;2.60;;
9304;SDS011;4690;52.422;13.486;2023-12-28T12:40:05;3.00;;;2.70;;
9304;SDS011;4690;52.422;13.486;2023-12-28T12:42:32;4.00;;;2.47;;
9304;SDS011;4690;52.422;13.486;2023-12-28T12:44:58;6.93;;;2.50;;
9304;SDS011;4690;52.422;13.486;2023-12-28T12:47:25;2.90;;;2.20;;
9304;SDS011;4690;52.422;13.486;2023-12-28T12:49:55;3.17;;;2.57;;
9304;SDS011;4690;52.422;13.486;2023-12-28T12:52:21;2.90;;;2.10;;
9304;SDS011;4690;52.422;13.486;2023-12-28T12:54:56;4.80;;;2.50;;
9304;SDS011;4690;52.422;13.486;2023-12-28T12:57:22;4.53;;;2.90;;
9304;SDS011;4690;52.422;13.486;2023-12-28T12:59:50;2.83;;;2.50;;
9304;SDS011;4690;52.422;13.486;2023-12-28T13:02:16;2.90;;;2.30;;
9304;SDS011;4690;52.422;13.486;2023-12-28T13:04:42;4.27;;;2.30;;
9304;SDS011;4690;52.422;13.486;2023-12-28T13:07:08;3.37;;;2.60;;
9304;SDS011;4690;52.422;13.486;2023-12-28T13:09:34;3.50;;;2.33;;
9304;SDS011;4690;52.422;13.486;2023-12-28T13:12:00;3.23;;;2.43;;
9304;SDS011;4690;52.422;13.486;2023-12-28T13:14:28;3.63;;;2.47;;
9304;SDS011;4690;52.422;13.486;2023-12-28T13:16:54;4.17;;;2.40;;
9304;SDS011;4690;52.422;13.486;2023-12-28T13:19:21;3.77;;;2.20;;
9304;SDS011;4690;52.422;13.486;2023-12-28T13:21:46;3.77;;;2.30;;
9304;SDS011;4690;52.422;13.486;2023-12-28T13:24:12;4.37;;;2.30;;
9304;SDS011;4690;52.422;13.486;2023-12-28T13:26:38;2.70;;;2.23;;
9304;SDS011;4690;52.422;13.486;2023-12-28T13:29:03;4.27;;;2.53;;
9304;SDS011;4690;52.422;13.486;2023-12-28T13:31:29;2.93;;;2.40;;
9304;SDS011;4690;52.422;13.486;2023-12-28T13:33:55;2.93;;;2.60;;
9304;SDS011;4690;52.422;13.486;2023-12-28T13:36:21;3.57;;;2.67;;
9304;SDS011;4690;52.422;13.486;2023-12-28T13:38:47;2.60;;;2.40;;
9304;SDS011;4690;52.422;13.486;2023-12-28T13:41:13;3.40;;;2.47;;
9304;SDS011;4690;52.422;13.486;2023-12-28T13:43:38;3.53;;;2.50;;
9304;SDS011;4690;52.422;13.486;2023-12-28T13:46:04;3.80;;;2.30;;
9304;SDS011;4690;52.422;13.486;2023-12-28T13:48:30;4.50;;;2.50;;
9304;SDS011;4690;52.422;13.486;2023-12-28T13:50:56;4.33;;;2.80;;
9304;SDS011;4690;52.422;13.486;2023-12-28T13:53:22;3.10;;;2.40;;
9304;SDS011;4690;52.422;13.486;2023-12-28T13:55:47;3.43;;;2.70;;
9304;SDS011;4690;52.422;13.486;2023-12-28T13:58:13;5.00;;;3.00;;
9304;SDS011;4690;52.422;13.486;2023-12-28T14:00:39;4.57;;;2.60;;
9304;SDS011;4690;52.422;13.486;2023-12-28T14:03:05;4.93;;;2.70;;
9304;SDS011;4690;52.422;13.486;2023-12-28T14:05:31;4.13;;;2.60;;
9304;SDS011;4690;52.422;13.486;2023-12-28T14:07:57;3.67;;;2.50;;
9304;SDS011;4690;52.422;13.486;2023-12-28T14:10:22;2.43;;;2.23;;
9304;SDS011;4690;52.422;13.486;2023-12-28T14:12:48;4.03;;;2.63;;
9304;SDS011;4690;52.422;13.486;2023-12-28T14:15:15;5.93;;;2.30;;
9304;SDS011;4690;52.422;13.486;2023-12-28T14:17:41;4.70;;;2.77;;
9304;SDS011;4690;52.422;13.486;2023-12-28T14:20:07;3.20;;;2.50;;
9304;SDS011;4690;52.422;13.486;2023-12-28T14:22:36;3.97;;;2.40;;
9304;SDS011;4690;52.422;13.486;2023-12-28T14:25:04;4.63;;;2.70;;
9304;SDS011;4690;52.422;13.486;2023-12-28T14:27:30;3.70;;;2.50;;
9304;SDS011;4690;52.422;13.486;2023-12-28T14:29:57;3.47;;;2.53;;
9304;SDS011;4690;52.422;13.486;2023-12-28T14:32:23;3.13;;;2.40;;
9304;SDS011;4690;52.422;13.486;2023-12-28T14:34:49;3.07;;;2.60;;
9304;SDS011;4690;52.422;13.486;2023-12-28T14:37:15;3.27;;;2.50;;
9304;SDS011;4690;52.422;13.486;2023-12-28T14:39:41;4.50;;;2.80;;
9304;SDS011;4690;52.422;13.486;2023-12-28T14:42:08;2.97;;;2.40;;
9304;SDS011;4690;52.422;13.486;2023-12-28T14:44:35;3.30;;;2.90;;
9304;SDS011;4690;52.422;13.486;2023-12-28T14:47:01;4.03;;;2.67;;
9304;SDS011;4690;52.422;13.486;2023-12-28T14:49:27;5.73;;;2.73;;
9304;SDS011;4690;52.422;13.486;2023-12-28T14:51:52;3.37;;;2.33;;
9304;SDS011;4690;52.422;13.486;2023-12-28T14:54:18;6.87;;;2.93;;
9304;SDS011;4690;52.422;13.486;2023-12-28T14:56:44;4.40;;;2.70;;
9304;SDS011;4690;52.422;13.486;2023-12-28T14:59:11;3.30;;;2.70;;
9304;SDS011;4690;52.422;13.486;2023-12-28T15:01:36;2.53;;;2.30;;
9304;SDS011;4690;52.422;13.486;2023-12-28T15:04:02;4.10;;;2.60;;
9304;SDS011;4690;52.422;13.486;2023-12-28T15:06:28;4.30;;;2.70;;
9304;SDS011;4690;52.422;13.486;2023-12-28T15:08:54;3.80;;;2.50;;
9304;SDS011;4690;52.422;13.486;2023-12-28T15:11:19;3.93;;;2.70;;